sensor_id;sensor_type;location;lat;lon;timestamp;temperature;humidity
13482;DHT22;6813;60.352;15.746;2023-06-26T00:00:41;19.00;70.50
13482;DHT22;6813;60.352;15.746;2023-06-26T00:03:07;19.00;70.70
13482;DHT22;6813;60.352;15.746;2023-06-26T00:05:33;19.00;70.80
13482;DHT22;6813;60.352;15.746;2023-06-26T00:08:00;19.00;70.60
13482;DHT22;6813;60.352;15.746;2023-06-26T00:10:27;19.10;69.80
13482;DHT22;6813;60.352;15.746;2023-06-26T00:12:53;19.00;69.80
13482;DHT22;6813;60.352;15.746;2023-06-26T00:15:19;19.00;70.90
13482;DHT22;6813;60.352;15.746;2023-06-26T00:17:45;19.00;70.70
13482;DHT22;6813;60.352;15.746;2023-06-26T00:20:11;18.80;72.60
13482;DHT22;6813;60.352;15.746;2023-06-26T00:22:37;18.80;71.90
13482;DHT22;6813;60.352;15.746;2023-06-26T00:25:06;18.70;72.00
13482;DHT22;6813;60.352;15.746;2023-06-26T00:27:32;18.70;72.80
13482;DHT22;6813;60.352;15.746;2023-06-26T00:29:58;18.50;73.00
13482;DHT22;6813;60.352;15.746;2023-06-26T00:32:23;18.60;72.90
13482;DHT22;6813;60.352;15.746;2023-06-26T00:34:49;18.60;73.50
13482;DHT22;6813;60.352;15.746;2023-06-26T00:37:15;18.50;73.20
13482;DHT22;6813;60.352;15.746;2023-06-26T00:39:41;18.30;74.00
13482;DHT22;6813;60.352;15.746;2023-06-26T00:42:07;18.30;74.00
13482;DHT22;6813;60.352;15.746;2023-06-26T00:44:32;18.30;74.50
13482;DHT22;6813;60.352;15.746;2023-06-26T00:46:58;18.30;74.60
13482;DHT22;6813;60.352;15.746;2023-06-26T00:49:25;18.30;74.60
13482;DHT22;6813;60.352;15.746;2023-06-26T00:51:51;18.30;74.70
13482;DHT22;6813;60.352;15.746;2023-06-26T00:54:17;18.30;75.30
13482;DHT22;6813;60.352;15.746;2023-06-26T00:56:48;18.20;74.60
13482;DHT22;6813;60.352;15.746;2023-06-26T00:59:15;18.10;75.90
13482;DHT22;6813;60.352;15.746;2023-06-26T01:01:40;18.00;76.90
13482;DHT22;6813;60.352;15.746;2023-06-26T01:04:06;17.90;76.70
13482;DHT22;6813;60.352;15.746;2023-06-26T01:06:33;17.90;76.90
13482;DHT22;6813;60.352;15.746;2023-06-26T01:09:02;17.70;78.70
13482;DHT22;6813;60.352;15.746;2023-06-26T01:11:28;17.70;78.40
13482;DHT22;6813;60.352;15.746;2023-06-26T01:13:54;17.70;78.40
13482;DHT22;6813;60.352;15.746;2023-06-26T01:16:23;17.70;78.40
13482;DHT22;6813;60.352;15.746;2023-06-26T01:18:49;17.70;78.40
13482;DHT22;6813;60.352;15.746;2023-06-26T01:21:15;17.70;78.90
13482;DHT22;6813;60.352;15.746;2023-06-26T01:26:21;17.70;79.90
13482;DHT22;6813;60.352;15.746;2023-06-26T01:28:47;17.70;80.50
13482;DHT22;6813;60.352;15.746;2023-06-26T01:31:15;17.60;80.50
13482;DHT22;6813;60.352;15.746;2023-06-26T01:33:41;17.70;80.60
13482;DHT22;6813;60.352;15.746;2023-06-26T01:36:07;17.70;81.00
13482;DHT22;6813;60.352;15.746;2023-06-26T01:38:33;17.60;81.50
13482;DHT22;6813;60.352;15.746;2023-06-26T01:41:00;17.60;82.80
13482;DHT22;6813;60.352;15.746;2023-06-26T01:44:08;17.50;82.30
13482;DHT22;6813;60.352;15.746;2023-06-26T01:52:21;17.30;81.80
13482;DHT22;6813;60.352;15.746;2023-06-26T01:57:56;17.10;82.30
13482;DHT22;6813;60.352;15.746;2023-06-26T02:00:23;16.90;82.40
13482;DHT22;6813;60.352;15.746;2023-06-26T02:02:49;16.90;82.70
13482;DHT22;6813;60.352;15.746;2023-06-26T02:05:15;17.00;82.50
13482;DHT22;6813;60.352;15.746;2023-06-26T02:07:41;17.00;82.40
13482;DHT22;6813;60.352;15.746;2023-06-26T02:10:07;17.10;82.50
13482;DHT22;6813;60.352;15.746;2023-06-26T02:12:34;17.10;82.50
13482;DHT22;6813;60.352;15.746;2023-06-26T02:15:01;17.20;82.50
13482;DHT22;6813;60.352;15.746;2023-06-26T02:17:27;17.10;83.20
13482;DHT22;6813;60.352;15.746;2023-06-26T02:19:53;16.90;84.20
13482;DHT22;6813;60.352;15.746;2023-06-26T02:22:18;16.90;83.80
13482;DHT22;6813;60.352;15.746;2023-06-26T02:24:44;17.00;83.30
13482;DHT22;6813;60.352;15.746;2023-06-26T02:27:10;17.10;83.20
13482;DHT22;6813;60.352;15.746;2023-06-26T02:29:36;17.00;82.60
13482;DHT22;6813;60.352;15.746;2023-06-26T02:32:02;17.10;83.00
13482;DHT22;6813;60.352;15.746;2023-06-26T02:34:27;17.10;82.80
13482;DHT22;6813;60.352;15.746;2023-06-26T02:36:54;17.10;82.90
13482;DHT22;6813;60.352;15.746;2023-06-26T02:39:20;17.10;82.70
13482;DHT22;6813;60.352;15.746;2023-06-26T02:41:46;17.20;82.40
13482;DHT22;6813;60.352;15.746;2023-06-26T02:44:12;17.20;83.00
13482;DHT22;6813;60.352;15.746;2023-06-26T02:46:39;17.20;83.30
13482;DHT22;6813;60.352;15.746;2023-06-26T02:49:04;17.20;83.80
13482;DHT22;6813;60.352;15.746;2023-06-26T02:51:32;17.20;83.70
13482;DHT22;6813;60.352;15.746;2023-06-26T02:53:59;17.20;83.30
13482;DHT22;6813;60.352;15.746;2023-06-26T02:56:24;17.30;83.50
13482;DHT22;6813;60.352;15.746;2023-06-26T02:58:57;17.40;83.40
13482;DHT22;6813;60.352;15.746;2023-06-26T03:01:22;17.50;83.10
13482;DHT22;6813;60.352;15.746;2023-06-26T03:03:48;17.60;82.10
13482;DHT22;6813;60.352;15.746;2023-06-26T03:06:15;17.70;81.20
13482;DHT22;6813;60.352;15.746;2023-06-26T03:08:41;17.80;80.20
13482;DHT22;6813;60.352;15.746;2023-06-26T03:11:07;17.90;79.90
13482;DHT22;6813;60.352;15.746;2023-06-26T03:13:35;17.90;79.90
13482;DHT22;6813;60.352;15.746;2023-06-26T03:16:03;18.00;79.70
13482;DHT22;6813;60.352;15.746;2023-06-26T03:18:29;18.10;79.10
13482;DHT22;6813;60.352;15.746;2023-06-26T03:20:56;18.20;78.80
13482;DHT22;6813;60.352;15.746;2023-06-26T03:23:22;18.30;79.10
13482;DHT22;6813;60.352;15.746;2023-06-26T03:25:49;18.40;78.90
13482;DHT22;6813;60.352;15.746;2023-06-26T03:28:15;18.50;78.40
13482;DHT22;6813;60.352;15.746;2023-06-26T03:30:41;18.70;77.60
13482;DHT22;6813;60.352;15.746;2023-06-26T03:33:07;18.80;78.40
13482;DHT22;6813;60.352;15.746;2023-06-26T03:35:32;18.90;78.20
13482;DHT22;6813;60.352;15.746;2023-06-26T03:37:58;19.00;77.80
13482;DHT22;6813;60.352;15.746;2023-06-26T03:40:24;19.10;77.00
13482;DHT22;6813;60.352;15.746;2023-06-26T03:42:50;19.20;77.50
13482;DHT22;6813;60.352;15.746;2023-06-26T03:45:15;19.30;77.20
13482;DHT22;6813;60.352;15.746;2023-06-26T03:47:41;19.10;79.00
13482;DHT22;6813;60.352;15.746;2023-06-26T03:50:07;19.00;80.00
13482;DHT22;6813;60.352;15.746;2023-06-26T03:52:33;18.80;82.10
13482;DHT22;6813;60.352;15.746;2023-06-26T03:54:58;18.70;83.60
13482;DHT22;6813;60.352;15.746;2023-06-26T03:57:24;18.50;85.70
13482;DHT22;6813;60.352;15.746;2023-06-26T03:59:51;18.30;87.10
13482;DHT22;6813;60.352;15.746;2023-06-26T04:02:16;18.30;87.80
13482;DHT22;6813;60.352;15.746;2023-06-26T04:04:42;18.10;89.40
13482;DHT22;6813;60.352;15.746;2023-06-26T04:07:08;18.20;89.70
13482;DHT22;6813;60.352;15.746;2023-06-26T04:09:34;18.50;89.50
13482;DHT22;6813;60.352;15.746;2023-06-26T04:12:00;18.50;89.30
13482;DHT22;6813;60.352;15.746;2023-06-26T04:14:25;18.70;89.20
13482;DHT22;6813;60.352;15.746;2023-06-26T04:16:51;18.60;88.90
13482;DHT22;6813;60.352;15.746;2023-06-26T04:19:17;18.60;89.20
13482;DHT22;6813;60.352;15.746;2023-06-26T04:21:43;18.90;88.50
13482;DHT22;6813;60.352;15.746;2023-06-26T04:24:09;19.00;87.40
13482;DHT22;6813;60.352;15.746;2023-06-26T04:26:35;19.30;87.30
13482;DHT22;6813;60.352;15.746;2023-06-26T04:29:01;19.50;85.90
13482;DHT22;6813;60.352;15.746;2023-06-26T04:31:27;19.60;84.80
13482;DHT22;6813;60.352;15.746;2023-06-26T04:33:53;19.70;84.40
13482;DHT22;6813;60.352;15.746;2023-06-26T04:36:20;19.80;84.90
13482;DHT22;6813;60.352;15.746;2023-06-26T04:38:46;19.80;85.00
13482;DHT22;6813;60.352;15.746;2023-06-26T04:41:14;19.70;85.60
13482;DHT22;6813;60.352;15.746;2023-06-26T04:43:39;19.50;86.30
13482;DHT22;6813;60.352;15.746;2023-06-26T04:46:05;19.60;86.30
13482;DHT22;6813;60.352;15.746;2023-06-26T04:48:32;20.00;86.10
13482;DHT22;6813;60.352;15.746;2023-06-26T04:50:57;20.20;85.50
13482;DHT22;6813;60.352;15.746;2023-06-26T04:53:25;20.20;85.70
13482;DHT22;6813;60.352;15.746;2023-06-26T04:55:51;20.10;85.60
13482;DHT22;6813;60.352;15.746;2023-06-26T04:58:18;20.30;86.00
13482;DHT22;6813;60.352;15.746;2023-06-26T05:00:44;20.50;85.30
13482;DHT22;6813;60.352;15.746;2023-06-26T05:03:14;20.60;84.20
13482;DHT22;6813;60.352;15.746;2023-06-26T05:05:39;20.80;84.00
13482;DHT22;6813;60.352;15.746;2023-06-26T05:08:23;20.70;83.50
13482;DHT22;6813;60.352;15.746;2023-06-26T05:10:49;20.70;84.00
13482;DHT22;6813;60.352;15.746;2023-06-26T05:13:15;20.50;84.90
13482;DHT22;6813;60.352;15.746;2023-06-26T05:15:43;20.30;85.60
13482;DHT22;6813;60.352;15.746;2023-06-26T05:18:09;20.30;85.60
13482;DHT22;6813;60.352;15.746;2023-06-26T05:20:36;20.20;87.00
13482;DHT22;6813;60.352;15.746;2023-06-26T05:23:02;20.50;85.50
13482;DHT22;6813;60.352;15.746;2023-06-26T05:25:30;21.10;85.10
13482;DHT22;6813;60.352;15.746;2023-06-26T05:27:59;21.40;83.10
13482;DHT22;6813;60.352;15.746;2023-06-26T05:30:26;21.60;83.00
13482;DHT22;6813;60.352;15.746;2023-06-26T05:32:53;21.80;82.50
13482;DHT22;6813;60.352;15.746;2023-06-26T05:35:23;21.80;83.00
13482;DHT22;6813;60.352;15.746;2023-06-26T05:37:49;22.00;82.10
13482;DHT22;6813;60.352;15.746;2023-06-26T05:40:19;22.10;81.90
13482;DHT22;6813;60.352;15.746;2023-06-26T05:42:45;22.30;82.00
13482;DHT22;6813;60.352;15.746;2023-06-26T05:45:11;22.50;80.90
13482;DHT22;6813;60.352;15.746;2023-06-26T05:47:36;22.60;80.60
13482;DHT22;6813;60.352;15.746;2023-06-26T05:50:03;22.90;79.40
13482;DHT22;6813;60.352;15.746;2023-06-26T05:52:29;23.30;78.70
13482;DHT22;6813;60.352;15.746;2023-06-26T05:54:56;23.40;78.10
13482;DHT22;6813;60.352;15.746;2023-06-26T05:57:27;23.50;77.10
13482;DHT22;6813;60.352;15.746;2023-06-26T05:59:53;22.70;78.70
13482;DHT22;6813;60.352;15.746;2023-06-26T06:02:19;22.60;81.30
13482;DHT22;6813;60.352;15.746;2023-06-26T06:04:45;22.80;80.30
13482;DHT22;6813;60.352;15.746;2023-06-26T06:07:11;23.00;78.70
13482;DHT22;6813;60.352;15.746;2023-06-26T06:09:37;22.90;78.80
13482;DHT22;6813;60.352;15.746;2023-06-26T06:12:05;22.80;79.20
13482;DHT22;6813;60.352;15.746;2023-06-26T06:14:34;22.90;79.00
13482;DHT22;6813;60.352;15.746;2023-06-26T06:17:01;23.00;79.00
13482;DHT22;6813;60.352;15.746;2023-06-26T06:19:27;23.00;79.10
13482;DHT22;6813;60.352;15.746;2023-06-26T06:21:52;23.00;79.60
13482;DHT22;6813;60.352;15.746;2023-06-26T06:24:18;22.80;78.80
13482;DHT22;6813;60.352;15.746;2023-06-26T06:26:44;23.00;79.30
13482;DHT22;6813;60.352;15.746;2023-06-26T06:29:09;23.30;78.30
13482;DHT22;6813;60.352;15.746;2023-06-26T06:31:35;23.50;77.80
13482;DHT22;6813;60.352;15.746;2023-06-26T06:34:01;23.80;77.70
13482;DHT22;6813;60.352;15.746;2023-06-26T06:36:27;23.90;77.00
13482;DHT22;6813;60.352;15.746;2023-06-26T06:38:53;23.90;75.90
13482;DHT22;6813;60.352;15.746;2023-06-26T06:41:19;23.90;74.80
13482;DHT22;6813;60.352;15.746;2023-06-26T06:43:46;23.80;76.00
13482;DHT22;6813;60.352;15.746;2023-06-26T06:46:11;23.90;75.70
13482;DHT22;6813;60.352;15.746;2023-06-26T06:48:37;24.50;76.50
13482;DHT22;6813;60.352;15.746;2023-06-26T06:51:03;25.20;73.10
13482;DHT22;6813;60.352;15.746;2023-06-26T06:53:29;25.50;71.70
13482;DHT22;6813;60.352;15.746;2023-06-26T06:55:55;25.70;70.90
13482;DHT22;6813;60.352;15.746;2023-06-26T06:58:21;25.90;71.10
13482;DHT22;6813;60.352;15.746;2023-06-26T07:00:48;26.10;69.60
13482;DHT22;6813;60.352;15.746;2023-06-26T07:03:14;25.60;70.30
13482;DHT22;6813;60.352;15.746;2023-06-26T07:05:43;25.50;71.30
13482;DHT22;6813;60.352;15.746;2023-06-26T07:08:09;26.20;72.10
13482;DHT22;6813;60.352;15.746;2023-06-26T07:10:35;26.50;68.50
13482;DHT22;6813;60.352;15.746;2023-06-26T07:13:01;26.50;68.20
13482;DHT22;6813;60.352;15.746;2023-06-26T07:15:27;26.50;67.20
13482;DHT22;6813;60.352;15.746;2023-06-26T07:17:53;26.40;67.00
13482;DHT22;6813;60.352;15.746;2023-06-26T07:20:18;26.20;67.50
13482;DHT22;6813;60.352;15.746;2023-06-26T07:22:44;26.10;69.00
13482;DHT22;6813;60.352;15.746;2023-06-26T07:25:11;26.20;70.00
13482;DHT22;6813;60.352;15.746;2023-06-26T07:27:38;26.70;68.80
13482;DHT22;6813;60.352;15.746;2023-06-26T07:30:04;27.20;66.90
13482;DHT22;6813;60.352;15.746;2023-06-26T07:32:30;27.50;64.30
13482;DHT22;6813;60.352;15.746;2023-06-26T07:34:56;27.10;64.50
13482;DHT22;6813;60.352;15.746;2023-06-26T07:37:21;26.80;66.00
13482;DHT22;6813;60.352;15.746;2023-06-26T07:39:48;26.90;68.60
13482;DHT22;6813;60.352;15.746;2023-06-26T07:42:14;26.60;66.80
13482;DHT22;6813;60.352;15.746;2023-06-26T07:44:42;26.80;66.90
13482;DHT22;6813;60.352;15.746;2023-06-26T07:47:08;26.70;67.20
13482;DHT22;6813;60.352;15.746;2023-06-26T07:49:33;27.20;67.30
13482;DHT22;6813;60.352;15.746;2023-06-26T07:51:59;27.50;65.30
13482;DHT22;6813;60.352;15.746;2023-06-26T07:54:25;27.60;64.80
13482;DHT22;6813;60.352;15.746;2023-06-26T07:56:59;27.40;63.90
13482;DHT22;6813;60.352;15.746;2023-06-26T07:59:27;27.30;64.40
13482;DHT22;6813;60.352;15.746;2023-06-26T08:01:54;27.60;63.40
13482;DHT22;6813;60.352;15.746;2023-06-26T08:04:20;27.60;61.70
13482;DHT22;6813;60.352;15.746;2023-06-26T08:06:51;27.30;64.00
13482;DHT22;6813;60.352;15.746;2023-06-26T08:09:18;27.40;63.30
13482;DHT22;6813;60.352;15.746;2023-06-26T08:11:44;27.30;64.90
13482;DHT22;6813;60.352;15.746;2023-06-26T08:14:10;27.60;63.40
13482;DHT22;6813;60.352;15.746;2023-06-26T08:16:38;27.60;63.10
13482;DHT22;6813;60.352;15.746;2023-06-26T08:19:04;27.80;64.80
13482;DHT22;6813;60.352;15.746;2023-06-26T08:21:30;27.70;61.20
13482;DHT22;6813;60.352;15.746;2023-06-26T08:23:56;27.40;62.10
13482;DHT22;6813;60.352;15.746;2023-06-26T08:26:21;27.50;63.00
13482;DHT22;6813;60.352;15.746;2023-06-26T08:28:47;27.50;62.50
13482;DHT22;6813;60.352;15.746;2023-06-26T08:31:13;27.70;63.00
13482;DHT22;6813;60.352;15.746;2023-06-26T08:33:38;27.70;61.40
13482;DHT22;6813;60.352;15.746;2023-06-26T08:36:04;27.70;61.30
13482;DHT22;6813;60.352;15.746;2023-06-26T08:38:30;28.10;62.60
13482;DHT22;6813;60.352;15.746;2023-06-26T08:40:55;28.50;63.20
13482;DHT22;6813;60.352;15.746;2023-06-26T08:43:21;28.40;61.30
13482;DHT22;6813;60.352;15.746;2023-06-26T08:45:48;28.40;61.80
13482;DHT22;6813;60.352;15.746;2023-06-26T08:48:17;28.20;62.20
13482;DHT22;6813;60.352;15.746;2023-06-26T08:50:44;28.10;61.30
13482;DHT22;6813;60.352;15.746;2023-06-26T08:53:29;28.20;61.40
13482;DHT22;6813;60.352;15.746;2023-06-26T08:55:57;28.40;61.00
13482;DHT22;6813;60.352;15.746;2023-06-26T08:58:24;29.00;60.00
13482;DHT22;6813;60.352;15.746;2023-06-26T09:00:50;28.80;59.10
13482;DHT22;6813;60.352;15.746;2023-06-26T09:03:17;29.00;59.90
13482;DHT22;6813;60.352;15.746;2023-06-26T09:05:42;29.10;60.80
13482;DHT22;6813;60.352;15.746;2023-06-26T09:08:08;28.90;60.40
13482;DHT22;6813;60.352;15.746;2023-06-26T09:10:34;28.50;61.30
13482;DHT22;6813;60.352;15.746;2023-06-26T09:13:00;28.60;62.20
13482;DHT22;6813;60.352;15.746;2023-06-26T09:15:37;28.90;59.10
13482;DHT22;6813;60.352;15.746;2023-06-26T09:18:05;28.80;59.90
13482;DHT22;6813;60.352;15.746;2023-06-26T09:20:31;28.20;59.50
13482;DHT22;6813;60.352;15.746;2023-06-26T09:22:59;27.90;60.40
13482;DHT22;6813;60.352;15.746;2023-06-26T09:25:25;28.00;62.30
13482;DHT22;6813;60.352;15.746;2023-06-26T09:27:52;28.30;60.60
13482;DHT22;6813;60.352;15.746;2023-06-26T09:30:18;28.70;60.10
13482;DHT22;6813;60.352;15.746;2023-06-26T09:32:44;28.80;60.90
13482;DHT22;6813;60.352;15.746;2023-06-26T09:35:10;28.90;58.20
13482;DHT22;6813;60.352;15.746;2023-06-26T09:37:36;28.70;61.80
13482;DHT22;6813;60.352;15.746;2023-06-26T09:40:03;28.70;58.80
13482;DHT22;6813;60.352;15.746;2023-06-26T09:42:29;28.90;58.90
13482;DHT22;6813;60.352;15.746;2023-06-26T09:44:55;28.60;58.80
13482;DHT22;6813;60.352;15.746;2023-06-26T09:47:21;28.70;62.80
13482;DHT22;6813;60.352;15.746;2023-06-26T09:49:47;28.50;57.10
13482;DHT22;6813;60.352;15.746;2023-06-26T09:52:17;28.60;58.90
13482;DHT22;6813;60.352;15.746;2023-06-26T09:54:43;28.70;57.80
13482;DHT22;6813;60.352;15.746;2023-06-26T09:57:20;29.20;56.50
13482;DHT22;6813;60.352;15.746;2023-06-26T09:59:46;29.30;56.00
13482;DHT22;6813;60.352;15.746;2023-06-26T10:02:12;29.50;57.10
13482;DHT22;6813;60.352;15.746;2023-06-26T10:04:38;29.80;55.80
13482;DHT22;6813;60.352;15.746;2023-06-26T10:07:10;29.80;55.70
13482;DHT22;6813;60.352;15.746;2023-06-26T10:09:41;29.30;56.60
13482;DHT22;6813;60.352;15.746;2023-06-26T10:12:29;28.80;57.50
13482;DHT22;6813;60.352;15.746;2023-06-26T10:14:57;28.80;58.40
13482;DHT22;6813;60.352;15.746;2023-06-26T10:17:24;28.90;57.80
13482;DHT22;6813;60.352;15.746;2023-06-26T10:19:51;29.10;57.30
13482;DHT22;6813;60.352;15.746;2023-06-26T10:22:20;28.90;56.80
13482;DHT22;6813;60.352;15.746;2023-06-26T10:24:50;28.90;57.20
13482;DHT22;6813;60.352;15.746;2023-06-26T10:27:23;29.00;54.90
13482;DHT22;6813;60.352;15.746;2023-06-26T10:29:54;29.50;55.30
13482;DHT22;6813;60.352;15.746;2023-06-26T10:32:22;29.80;54.40
13482;DHT22;6813;60.352;15.746;2023-06-26T10:34:49;29.30;53.50
13482;DHT22;6813;60.352;15.746;2023-06-26T10:37:15;29.00;53.00
13482;DHT22;6813;60.352;15.746;2023-06-26T10:39:47;28.90;53.60
13482;DHT22;6813;60.352;15.746;2023-06-26T10:42:18;28.50;53.80
13482;DHT22;6813;60.352;15.746;2023-06-26T10:44:47;28.30;54.30
13482;DHT22;6813;60.352;15.746;2023-06-26T10:47:45;28.40;55.00
13482;DHT22;6813;60.352;15.746;2023-06-26T10:50:30;28.20;53.80
13482;DHT22;6813;60.352;15.746;2023-06-26T10:56:02;27.90;52.70
13482;DHT22;6813;60.352;15.746;2023-06-26T10:58:41;27.80;55.30
13482;DHT22;6813;60.352;15.746;2023-06-26T11:01:17;28.10;54.30
13482;DHT22;6813;60.352;15.746;2023-06-26T11:03:46;28.50;55.70
13482;DHT22;6813;60.352;15.746;2023-06-26T11:06:18;28.80;53.30
13482;DHT22;6813;60.352;15.746;2023-06-26T11:08:55;28.60;53.40
13482;DHT22;6813;60.352;15.746;2023-06-26T11:14:23;28.80;52.40
13482;DHT22;6813;60.352;15.746;2023-06-26T11:16:50;28.70;51.50
13482;DHT22;6813;60.352;15.746;2023-06-26T11:19:19;28.90;53.00
13482;DHT22;6813;60.352;15.746;2023-06-26T11:21:46;28.50;52.00
13482;DHT22;6813;60.352;15.746;2023-06-26T11:24:12;28.50;54.80
13482;DHT22;6813;60.352;15.746;2023-06-26T11:26:43;28.20;56.10
13482;DHT22;6813;60.352;15.746;2023-06-26T11:29:09;28.10;52.50
13482;DHT22;6813;60.352;15.746;2023-06-26T11:31:37;27.90;54.50
13482;DHT22;6813;60.352;15.746;2023-06-26T11:34:05;27.70;53.90
13482;DHT22;6813;60.352;15.746;2023-06-26T11:36:31;27.90;53.60
13482;DHT22;6813;60.352;15.746;2023-06-26T11:39:02;28.40;53.10
13482;DHT22;6813;60.352;15.746;2023-06-26T11:41:31;28.50;54.30
13482;DHT22;6813;60.352;15.746;2023-06-26T11:44:04;28.40;54.80
13482;DHT22;6813;60.352;15.746;2023-06-26T11:46:30;28.00;54.50
13482;DHT22;6813;60.352;15.746;2023-06-26T11:48:56;27.80;56.20
13482;DHT22;6813;60.352;15.746;2023-06-26T11:51:22;28.10;55.70
13482;DHT22;6813;60.352;15.746;2023-06-26T11:53:48;28.10;55.00
13482;DHT22;6813;60.352;15.746;2023-06-26T11:56:15;28.40;55.30
13482;DHT22;6813;60.352;15.746;2023-06-26T12:01:40;28.40;53.80
13482;DHT22;6813;60.352;15.746;2023-06-26T12:04:08;28.10;53.90
13482;DHT22;6813;60.352;15.746;2023-06-26T12:06:36;27.90;54.60
13482;DHT22;6813;60.352;15.746;2023-06-26T12:09:05;28.00;55.00
13482;DHT22;6813;60.352;15.746;2023-06-26T12:11:32;28.20;54.10
13482;DHT22;6813;60.352;15.746;2023-06-26T12:13:59;28.20;54.70
13482;DHT22;6813;60.352;15.746;2023-06-26T12:16:25;28.00;55.00
13482;DHT22;6813;60.352;15.746;2023-06-26T12:19:01;27.90;55.60
13482;DHT22;6813;60.352;15.746;2023-06-26T12:21:45;27.70;54.90
13482;DHT22;6813;60.352;15.746;2023-06-26T12:24:17;27.80;55.20
13482;DHT22;6813;60.352;15.746;2023-06-26T12:26:44;28.20;55.50
13482;DHT22;6813;60.352;15.746;2023-06-26T12:29:15;28.30;55.30
13482;DHT22;6813;60.352;15.746;2023-06-26T12:31:44;28.50;54.70
13482;DHT22;6813;60.352;15.746;2023-06-26T12:34:12;28.70;54.80
13482;DHT22;6813;60.352;15.746;2023-06-26T12:36:42;28.40;53.60
13482;DHT22;6813;60.352;15.746;2023-06-26T12:39:12;28.10;54.00
13482;DHT22;6813;60.352;15.746;2023-06-26T12:44:28;27.70;54.50
13482;DHT22;6813;60.352;15.746;2023-06-26T12:46:59;27.60;55.50
13482;DHT22;6813;60.352;15.746;2023-06-26T12:49:38;27.80;54.80
13482;DHT22;6813;60.352;15.746;2023-06-26T12:52:06;27.90;54.00
13482;DHT22;6813;60.352;15.746;2023-06-26T12:54:34;27.90;55.00
13482;DHT22;6813;60.352;15.746;2023-06-26T12:56:59;28.20;55.90
13482;DHT22;6813;60.352;15.746;2023-06-26T12:59:25;28.10;54.00
13482;DHT22;6813;60.352;15.746;2023-06-26T13:01:51;28.00;55.30
13482;DHT22;6813;60.352;15.746;2023-06-26T13:04:17;27.60;54.90
13482;DHT22;6813;60.352;15.746;2023-06-26T13:06:43;27.50;55.80
13482;DHT22;6813;60.352;15.746;2023-06-26T13:09:09;27.70;56.50
13482;DHT22;6813;60.352;15.746;2023-06-26T13:11:36;27.90;54.70
13482;DHT22;6813;60.352;15.746;2023-06-26T13:14:02;27.90;54.70
13482;DHT22;6813;60.352;15.746;2023-06-26T13:16:29;27.40;53.80
13482;DHT22;6813;60.352;15.746;2023-06-26T13:18:54;27.40;54.50
13482;DHT22;6813;60.352;15.746;2023-06-26T13:21:21;27.30;54.10
13482;DHT22;6813;60.352;15.746;2023-06-26T13:23:47;27.30;55.90
13482;DHT22;6813;60.352;15.746;2023-06-26T13:26:13;27.20;54.70
13482;DHT22;6813;60.352;15.746;2023-06-26T13:28:38;27.30;54.10
13482;DHT22;6813;60.352;15.746;2023-06-26T13:31:04;27.20;54.10
13482;DHT22;6813;60.352;15.746;2023-06-26T13:33:30;27.30;53.50
13482;DHT22;6813;60.352;15.746;2023-06-26T13:35:56;27.40;54.00
13482;DHT22;6813;60.352;15.746;2023-06-26T13:38:23;27.70;54.00
13482;DHT22;6813;60.352;15.746;2023-06-26T13:40:53;27.90;54.70
13482;DHT22;6813;60.352;15.746;2023-06-26T13:43:21;27.70;52.60
13482;DHT22;6813;60.352;15.746;2023-06-26T13:45:47;27.40;53.70
13482;DHT22;6813;60.352;15.746;2023-06-26T13:48:13;27.40;54.20
13482;DHT22;6813;60.352;15.746;2023-06-26T13:50:38;27.20;54.50
13482;DHT22;6813;60.352;15.746;2023-06-26T13:53:04;27.10;54.80
13482;DHT22;6813;60.352;15.746;2023-06-26T13:55:30;27.00;54.50
13482;DHT22;6813;60.352;15.746;2023-06-26T13:57:56;26.90;55.60
13482;DHT22;6813;60.352;15.746;2023-06-26T14:00:22;26.90;55.70
13482;DHT22;6813;60.352;15.746;2023-06-26T14:02:48;27.00;55.90
13482;DHT22;6813;60.352;15.746;2023-06-26T14:05:14;27.10;56.20
13482;DHT22;6813;60.352;15.746;2023-06-26T14:07:40;27.20;55.60
13482;DHT22;6813;60.352;15.746;2023-06-26T14:10:06;27.40;55.70
13482;DHT22;6813;60.352;15.746;2023-06-26T14:12:32;27.50;54.70
13482;DHT22;6813;60.352;15.746;2023-06-26T14:14:58;27.20;54.30
13482;DHT22;6813;60.352;15.746;2023-06-26T14:17:24;27.30;55.60
13482;DHT22;6813;60.352;15.746;2023-06-26T14:19:53;27.20;54.90
13482;DHT22;6813;60.352;15.746;2023-06-26T14:22:19;27.00;54.40
13482;DHT22;6813;60.352;15.746;2023-06-26T14:24:45;26.90;54.50
13482;DHT22;6813;60.352;15.746;2023-06-26T14:27:10;27.00;56.00
13482;DHT22;6813;60.352;15.746;2023-06-26T14:29:36;26.80;54.60
13482;DHT22;6813;60.352;15.746;2023-06-26T14:32:03;26.90;55.80
13482;DHT22;6813;60.352;15.746;2023-06-26T14:34:29;27.00;55.80
13482;DHT22;6813;60.352;15.746;2023-06-26T14:36:55;27.10;54.50
13482;DHT22;6813;60.352;15.746;2023-06-26T14:39:21;26.90;54.40
13482;DHT22;6813;60.352;15.746;2023-06-26T14:41:47;26.90;56.10
13482;DHT22;6813;60.352;15.746;2023-06-26T14:44:14;27.00;53.90
13482;DHT22;6813;60.352;15.746;2023-06-26T14:46:39;26.90;54.40
13482;DHT22;6813;60.352;15.746;2023-06-26T14:49:05;26.70;54.50
13482;DHT22;6813;60.352;15.746;2023-06-26T14:51:31;26.70;55.40
13482;DHT22;6813;60.352;15.746;2023-06-26T14:53:57;26.60;55.50
13482;DHT22;6813;60.352;15.746;2023-06-26T14:56:23;26.60;54.20
13482;DHT22;6813;60.352;15.746;2023-06-26T14:58:49;26.50;54.60
13482;DHT22;6813;60.352;15.746;2023-06-26T15:01:16;26.50;55.50
13482;DHT22;6813;60.352;15.746;2023-06-26T15:03:48;26.60;55.80
13482;DHT22;6813;60.352;15.746;2023-06-26T15:06:13;26.50;54.80
13482;DHT22;6813;60.352;15.746;2023-06-26T15:08:39;26.40;54.50
13482;DHT22;6813;60.352;15.746;2023-06-26T15:11:05;26.40;55.00
13482;DHT22;6813;60.352;15.746;2023-06-26T15:13:31;26.30;55.50
13482;DHT22;6813;60.352;15.746;2023-06-26T15:15:57;26.40;55.00
13482;DHT22;6813;60.352;15.746;2023-06-26T15:18:23;26.20;55.50
13482;DHT22;6813;60.352;15.746;2023-06-26T15:20:48;26.20;54.80
13482;DHT22;6813;60.352;15.746;2023-06-26T15:23:14;26.20;55.20
13482;DHT22;6813;60.352;15.746;2023-06-26T15:25:40;26.40;55.60
13482;DHT22;6813;60.352;15.746;2023-06-26T15:28:06;26.30;55.60
13482;DHT22;6813;60.352;15.746;2023-06-26T15:30:32;26.40;54.90
13482;DHT22;6813;60.352;15.746;2023-06-26T15:32:58;26.20;54.90
13482;DHT22;6813;60.352;15.746;2023-06-26T15:35:24;26.20;54.50
13482;DHT22;6813;60.352;15.746;2023-06-26T15:37:50;26.20;55.00
13482;DHT22;6813;60.352;15.746;2023-06-26T15:40:16;26.20;54.10
13482;DHT22;6813;60.352;15.746;2023-06-26T15:42:49;26.20;54.40
13482;DHT22;6813;60.352;15.746;2023-06-26T15:45:16;26.20;53.90
13482;DHT22;6813;60.352;15.746;2023-06-26T15:47:47;26.20;54.00
13482;DHT22;6813;60.352;15.746;2023-06-26T15:50:13;26.30;54.10
13482;DHT22;6813;60.352;15.746;2023-06-26T15:52:39;26.10;53.80